createdAt,value
2023-01-19T00:10:54.935Z,16.14
2023-01-19T00:25:45.186Z,18.32
2023-01-19T00:40:34.785Z,14.73
2023-01-19T00:55:24.951Z,18.12
2023-01-19T01:10:14.584Z,16.19
2023-01-19T01:25:05.122Z,16.52
2023-01-19T01:39:55.801Z,13.54
2023-01-19T01:54:46.026Z,16.16
2023-01-19T02:09:55.276Z,14.69
2023-01-19T02:24:50.657Z,14.12
2023-01-19T02:39:43.181Z,17.12
2023-01-19T02:54:36.044Z,14.13
2023-01-19T03:09:31.424Z,15.41
2023-01-19T03:24:24.802Z,16.98
2023-01-19T03:39:15.549Z,15.77
2023-01-19T03:54:06.291Z,14.91
2023-01-19T04:08:56.931Z,17.78
2023-01-19T04:23:47.092Z,20.39
2023-01-19T04:38:37.300Z,18.71
2023-01-19T04:53:27.066Z,19.54
2023-01-19T05:08:17.143Z,19.49
2023-01-19T05:23:06.996Z,17.01
2023-01-19T05:37:56.385Z,16.66
2023-01-19T05:52:46.392Z,16.14
2023-01-19T06:07:35.933Z,15.00
2023-01-19T06:22:26.419Z,17.12
2023-01-19T06:37:25.288Z,15.24
2023-01-19T06:52:17.944Z,14.27
2023-01-19T07:07:10.870Z,17.01
2023-01-19T07:22:00.679Z,15.29
2023-01-19T07:36:50.862Z,17.62
2023-01-19T07:51:40.893Z,12.62
2023-01-19T08:06:30.824Z,13.00
2023-01-19T08:21:21.234Z,13.37
2023-01-19T08:36:10.403Z,11.22
2023-01-19T09:06:06.541Z,11.13
2023-01-19T09:20:58.391Z,11.33
2023-01-19T09:35:48.486Z,13.34
2023-01-19T09:50:38.493Z,9.01
2023-01-19T10:05:31.054Z,9.39
2023-01-19T10:20:23.863Z,12.92
2023-01-19T10:35:16.620Z,11.92
2023-01-19T10:50:30.750Z,12.46
2023-01-19T11:05:27.417Z,12.61
2023-01-19T11:20:19.647Z,14.09
2023-01-19T11:35:30.460Z,11.77
2023-01-19T11:50:29.070Z,13.28
2023-01-19T12:05:22.644Z,12.67
2023-01-19T12:20:32.677Z,10.79
2023-01-19T12:35:53.292Z,14.33
2023-01-19T12:50:49.134Z,13.11
2023-01-19T13:05:40.993Z,11.87
2023-01-19T13:20:32.568Z,14.02
2023-01-19T13:35:22.857Z,14.07
2023-01-19T13:50:27.751Z,11.01
2023-01-19T14:05:35.360Z,9.92
2023-01-19T14:20:28.503Z,9.87
2023-01-19T14:35:23.937Z,7.72
2023-01-19T14:50:17.432Z,7.62
2023-01-19T15:05:08.395Z,11.01
2023-01-19T15:19:57.267Z,9.74
2023-01-19T15:34:47.576Z,12.83
2023-01-19T15:49:38.348Z,12.79
2023-01-19T16:04:28.641Z,13.53
2023-01-19T16:19:17.540Z,14.92
2023-01-19T16:34:07.021Z,14.39
2023-01-19T16:49:02.664Z,15.07
2023-01-19T17:03:56.547Z,12.73
2023-01-19T17:18:45.620Z,16.64
2023-01-19T17:33:35.443Z,14.49
2023-01-19T17:48:25.788Z,15.16
2023-01-19T18:03:15.970Z,19.48
2023-01-19T18:18:05.194Z,17.04
2023-01-19T18:32:56.023Z,14.73
2023-01-19T18:47:47.840Z,14.42
2023-01-19T19:02:40.506Z,15.73
2023-01-19T19:17:31.036Z,16.49
2023-01-19T19:32:20.676Z,17.31
2023-01-19T19:47:10.681Z,20.47
2023-01-19T20:02:00.124Z,23.08
2023-01-19T20:16:49.852Z,21.31
2023-01-19T20:31:51.788Z,18.44
2023-01-19T20:46:46.088Z,20.49
2023-01-19T21:01:35.828Z,18.19
2023-01-19T21:16:26.371Z,16.68
2023-01-19T21:31:17.135Z,20.62
2023-01-19T21:46:13.319Z,17.42
2023-01-19T22:01:06.996Z,14.37
2023-01-19T22:15:59.702Z,14.36
2023-01-19T22:30:53.305Z,17.82
2023-01-19T22:45:43.279Z,16.92
2023-01-19T23:00:33.273Z,17.72
2023-01-19T23:15:23.176Z,22.96
2023-01-19T23:30:12.857Z,22.12
2023-01-19T23:45:02.458Z,19.07
2023-01-19T23:59:52.460Z,19.32
